createdAt,value
2023-11-15T00:00:19.483Z,100944.19
2023-11-15T00:02:46.555Z,100953.28
2023-11-15T00:05:14.096Z,100961.41
2023-11-15T00:07:40.914Z,100958.94
2023-11-15T00:10:09.072Z,100960.56
2023-11-15T00:12:36.004Z,100961.88
2023-11-15T00:15:02.614Z,100966.44
2023-11-15T00:17:32.337Z,100967.47
2023-11-15T00:20:00.347Z,100974.94
2023-11-15T00:22:27.220Z,100963.78
2023-11-15T00:24:54.265Z,100970.88
2023-11-15T00:27:21.486Z,100967.00
2023-11-15T00:29:49.036Z,100975.94
2023-11-15T00:32:16.361Z,100981.00
2023-11-15T00:34:43.001Z,100991.22
2023-11-15T00:37:12.561Z,100996.13
2023-11-15T00:39:41.650Z,101002.47
2023-11-15T00:42:13.248Z,100999.25
2023-11-15T00:44:40.196Z,101007.28
2023-11-15T00:47:07.456Z,101009.84
2023-11-15T00:49:34.354Z,101014.00
2023-11-15T00:52:01.165Z,101017.31
2023-11-15T00:54:27.894Z,101019.00
2023-11-15T00:56:57.191Z,101027.13
2023-11-15T00:59:27.981Z,101029.88
2023-11-15T01:02:01.083Z,101029.03
2023-11-15T01:04:31.331Z,101043.22
2023-11-15T01:06:58.158Z,101032.53
2023-11-15T01:09:25.225Z,101027.03
2023-11-15T01:11:54.913Z,101036.69
2023-11-15T01:14:22.020Z,101052.66
2023-11-15T01:16:48.858Z,101053.25
2023-11-15T01:19:16.152Z,101053.16
2023-11-15T01:21:43.201Z,101054.09
2023-11-15T01:24:10.310Z,101055.59
2023-11-15T01:26:37.532Z,101062.78
2023-11-15T01:29:04.773Z,101061.94
2023-11-15T01:31:31.884Z,101061.75
2023-11-15T01:33:58.854Z,101069.41
2023-11-15T01:36:25.976Z,101064.97
2023-11-15T01:38:53.125Z,101060.53
2023-11-15T01:41:20.655Z,101063.94
2023-11-15T01:43:47.610Z,101071.78
2023-11-15T01:46:16.543Z,101077.06
2023-11-15T01:48:44.338Z,101082.28
2023-11-15T01:51:14.208Z,101095.59
2023-11-15T01:53:41.164Z,101102.69
2023-11-15T01:56:10.223Z,101107.72
2023-11-15T01:58:38.177Z,101103.72
2023-11-15T02:01:06.848Z,101109.69
2023-11-15T02:03:33.844Z,101119.91
2023-11-15T02:06:01.357Z,101110.38
2023-11-15T02:08:28.790Z,101113.97
2023-11-15T02:10:56.876Z,101119.25
2023-11-15T02:13:27.872Z,101121.22
2023-11-15T02:15:58.157Z,101122.09
2023-11-15T02:18:26.967Z,101110.28
2023-11-15T02:20:56.740Z,101120.19
2023-11-15T02:23:23.864Z,101129.84
2023-11-15T02:25:54.362Z,101119.91
2023-11-15T02:28:21.686Z,101118.78
2023-11-15T02:30:50.092Z,101125.97
2023-11-15T02:33:17.076Z,101125.78
2023-11-15T02:35:43.742Z,101122.09
2023-11-15T02:38:10.403Z,101132.88
2023-11-15T02:40:39.767Z,101130.31
2023-11-15T02:43:11.259Z,101128.91
2023-11-15T02:45:38.326Z,101132.88
2023-11-15T02:48:05.399Z,101135.91
2023-11-15T02:50:33.046Z,101129.56
2023-11-15T02:52:59.931Z,101136.38
2023-11-15T02:55:26.566Z,101133.66
2023-11-15T02:57:53.193Z,101136.28
2023-11-15T03:00:20.206Z,101139.78
2023-11-15T03:02:47.265Z,101134.78
2023-11-15T03:05:15.836Z,101139.78
2023-11-15T03:07:42.741Z,101135.53
2023-11-15T03:10:10.027Z,101142.84
2023-11-15T03:12:36.853Z,101141.03
2023-11-15T03:15:04.755Z,101137.00
2023-11-15T03:17:32.577Z,101141.47
2023-11-15T03:20:00.418Z,101139.28
2023-11-15T03:22:27.083Z,101141.09
2023-11-15T03:24:53.676Z,101144.22
2023-11-15T03:27:21.102Z,101147.28
2023-11-15T03:29:48.087Z,101147.84
2023-11-15T03:32:15.222Z,101159.47
2023-11-15T03:34:43.172Z,101156.25
2023-11-15T03:37:10.976Z,101154.47
2023-11-15T03:39:39.093Z,101152.38
2023-11-15T03:42:06.724Z,101154.66
2023-11-15T03:44:35.744Z,101160.72
2023-11-15T03:47:03.684Z,101156.06
2023-11-15T03:49:30.834Z,101166.97
2023-11-15T03:51:59.423Z,101165.25
2023-11-15T03:54:26.194Z,101161.56
2023-11-15T03:56:56.415Z,101169.72
2023-11-15T03:59:23.511Z,101174.81
2023-11-15T04:01:55.253Z,101177.47
2023-11-15T04:04:25.340Z,101178.03
2023-11-15T04:06:52.979Z,101181.63
2023-11-15T04:09:20.934Z,101192.16
2023-11-15T04:11:50.132Z,101187.59
2023-11-15T04:14:18.348Z,101184.19
2023-11-15T04:16:46.024Z,101189.50
2023-11-15T04:19:13.314Z,101197.25
2023-11-15T04:21:40.808Z,101193.09
2023-11-15T04:24:08.787Z,101188.16
2023-11-15T04:26:35.990Z,101196.59
2023-11-15T04:29:03.371Z,101203.13
2023-11-15T04:31:30.445Z,101201.63
2023-11-15T04:33:57.723Z,101205.13
2023-11-15T04:36:26.374Z,101208.44
2023-11-15T04:38:53.255Z,101217.44
2023-11-15T04:41:21.507Z,101222.44
2023-11-15T04:43:48.114Z,101221.50
2023-11-15T04:46:16.292Z,101230.97
2023-11-15T04:48:43.290Z,101228.59
2023-11-15T04:51:10.804Z,101226.63
2023-11-15T04:53:38.660Z,101229.44
2023-11-15T04:56:06.618Z,101236.47
2023-11-15T04:58:33.948Z,101239.78
2023-11-15T05:01:01.171Z,101246.03
2023-11-15T05:03:28.016Z,101245.84
2023-11-15T05:05:56.009Z,101245.75
2023-11-15T05:08:22.798Z,101241.28
2023-11-15T05:10:50.074Z,101255.59
2023-11-15T05:13:18.132Z,101254.84
2023-11-15T05:15:46.898Z,101252.09
2023-11-15T05:18:14.201Z,101241.94
2023-11-15T05:20:41.108Z,101234.94
2023-11-15T05:23:07.949Z,101249.81
2023-11-15T05:25:34.564Z,101241.75
2023-11-15T05:28:01.319Z,101257.66
2023-11-15T05:30:29.049Z,101254.34
2023-11-15T05:32:55.773Z,101256.91
2023-11-15T05:35:24.278Z,101258.44
2023-11-15T05:37:51.145Z,101255.13
2023-11-15T05:40:17.968Z,101253.13
2023-11-15T05:42:44.753Z,101258.63
2023-11-15T05:45:12.255Z,101264.09
2023-11-15T05:47:39.953Z,101261.44
2023-11-15T05:50:11.215Z,101262.22
2023-11-15T05:52:40.995Z,101264.59
2023-11-15T05:55:09.853Z,101267.06
2023-11-15T05:57:37.006Z,101268.19
2023-11-15T06:00:19.943Z,101277.94
2023-11-15T06:02:49.189Z,101275.28
2023-11-15T06:05:17.589Z,101289.66
2023-11-15T06:07:44.526Z,101291.66
2023-11-15T06:10:12.337Z,101297.03
2023-11-15T06:12:41.553Z,101288.78
2023-11-15T06:15:10.911Z,101280.34
2023-11-15T06:17:40.644Z,101276.69
2023-11-15T06:20:09.468Z,101273.72
2023-11-15T06:22:38.679Z,101288.78
2023-11-15T06:25:09.519Z,101285.94
2023-11-15T06:27:36.877Z,101282.44
2023-11-15T06:30:05.018Z,101287.38
2023-11-15T06:32:32.122Z,101294.72
2023-11-15T06:34:59.001Z,101299.56
2023-11-15T06:37:25.712Z,101300.63
2023-11-15T06:39:54.229Z,101299.75
2023-11-15T06:42:25.182Z,101300.34
2023-11-15T06:44:52.051Z,101302.41
2023-11-15T06:47:20.561Z,101309.41
2023-11-15T06:49:47.712Z,101308.38
2023-11-15T06:52:14.549Z,101310.94
2023-11-15T06:54:41.825Z,101320.59
2023-11-15T06:57:09.925Z,101323.66
2023-11-15T06:59:36.944Z,101318.81
2023-11-15T07:02:05.243Z,101326.84
2023-11-15T07:04:32.083Z,101326.94
2023-11-15T07:06:59.157Z,101326.34
2023-11-15T07:09:28.320Z,101336.19
2023-11-15T07:11:56.131Z,101337.03
2023-11-15T07:14:23.573Z,101341.41
2023-11-15T07:16:57.034Z,101343.66
2023-11-15T07:19:26.122Z,101348.00
2023-11-15T07:21:56.687Z,101357.91
2023-11-15T07:24:24.588Z,101360.41
2023-11-15T07:26:51.588Z,101370.72
2023-11-15T07:29:23.023Z,101372.94
2023-11-15T07:31:54.765Z,101365.34
2023-11-15T07:34:25.068Z,101368.75
2023-11-15T07:36:59.648Z,101377.56
2023-11-15T07:39:27.844Z,101381.75
2023-11-15T07:41:56.191Z,101375.75
2023-11-15T07:44:27.317Z,101385.16
2023-11-15T07:46:56.365Z,101390.09
2023-11-15T07:49:25.224Z,101383.59
2023-11-15T07:51:55.907Z,101387.63
2023-11-15T07:54:23.382Z,101382.41
2023-11-15T07:56:50.501Z,101394.28
2023-11-15T07:59:18.270Z,101390.09
2023-11-15T08:01:47.959Z,101396.75
2023-11-15T08:04:16.980Z,101398.28
2023-11-15T08:06:44.993Z,101407.09
2023-11-15T08:09:26.075Z,101410.41
2023-11-15T08:11:54.850Z,101416.84
2023-11-15T08:14:22.792Z,101412.34
2023-11-15T08:16:54.082Z,101414.50
2023-11-15T08:19:21.023Z,101423.56
2023-11-15T08:21:52.171Z,101417.13
2023-11-15T08:24:22.902Z,101429.34
2023-11-15T08:26:58.447Z,101428.50
2023-11-15T08:29:25.680Z,101435.38
2023-11-15T08:31:54.234Z,101426.47
2023-11-15T08:34:24.087Z,101437.84
2023-11-15T08:36:53.145Z,101445.19
2023-11-15T08:39:20.409Z,101442.25
2023-11-15T08:41:51.025Z,101431.41
2023-11-15T08:44:19.578Z,101449.25
2023-11-15T08:46:47.245Z,101448.47
2023-11-15T08:49:15.101Z,101445.75
2023-11-15T08:51:44.255Z,101448.66
2023-11-15T08:54:13.413Z,101453.53
2023-11-15T08:56:42.894Z,101453.16
2023-11-15T08:59:20.001Z,101450.16
2023-11-15T09:01:48.994Z,101462.66
2023-11-15T09:04:17.747Z,101453.84
2023-11-15T09:06:49.520Z,101458.97
2023-11-15T09:09:17.414Z,101453.06
2023-11-15T09:11:45.824Z,101461.88
2023-11-15T09:14:16.014Z,101462.78
2023-11-15T09:16:46.265Z,101461.25
2023-11-15T09:19:18.358Z,101464.06
2023-11-15T09:21:49.907Z,101465.50
2023-11-15T09:24:23.920Z,101459.75
2023-11-15T09:26:52.784Z,101463.09
2023-11-15T09:29:21.802Z,101463.78
2023-11-15T09:31:52.083Z,101460.19
2023-11-15T09:34:21.054Z,101463.22
2023-11-15T09:36:51.224Z,101469.13
2023-11-15T09:39:18.333Z,101473.94
2023-11-15T09:42:12.435Z,101466.75
2023-11-15T09:44:43.076Z,101464.75
2023-11-15T09:47:11.656Z,101475.03
2023-11-15T09:49:40.185Z,101476.13
2023-11-15T09:52:14.152Z,101481.28
2023-11-15T09:54:50.457Z,101483.75
2023-11-15T09:57:21.812Z,101485.78
2023-11-15T10:00:00.282Z,101479.91
2023-11-15T10:02:38.020Z,101484.66
2023-11-15T10:05:25.563Z,101478.41
2023-11-15T10:08:11.253Z,101491.00
2023-11-15T10:10:42.186Z,101482.78
2023-11-15T10:13:15.844Z,101486.69
2023-11-15T10:15:47.617Z,101489.72
2023-11-15T10:18:33.607Z,101491.53
2023-11-15T10:21:13.271Z,101488.69
2023-11-15T10:23:41.870Z,101487.06
2023-11-15T10:26:10.738Z,101490.09
2023-11-15T10:28:40.988Z,101481.38
2023-11-15T10:31:17.132Z,101493.50
2023-11-15T10:33:51.055Z,101481.75
2023-11-15T10:36:23.363Z,101487.34
2023-11-15T10:38:52.668Z,101491.72
2023-11-15T10:41:21.987Z,101488.47
2023-11-15T10:43:58.396Z,101486.50
2023-11-15T10:46:30.361Z,101487.72
2023-11-15T10:48:59.127Z,101492.75
2023-11-15T10:51:37.043Z,101490.19
2023-11-15T10:54:05.390Z,101491.88
2023-11-15T10:56:36.363Z,101495.31
2023-11-15T10:59:05.493Z,101485.09
2023-11-15T11:01:37.574Z,101478.66
2023-11-15T11:04:12.741Z,101478.38
2023-11-15T11:06:52.119Z,101477.50
2023-11-15T11:09:58.954Z,101479.88
2023-11-15T11:12:27.011Z,101482.44
2023-11-15T11:15:18.760Z,101489.75
2023-11-15T11:17:47.227Z,101488.97
2023-11-15T11:20:31.566Z,101499.22
2023-11-15T11:23:18.830Z,101501.78
2023-11-15T11:25:48.097Z,101497.59
2023-11-15T11:28:15.754Z,101487.53
2023-11-15T11:30:44.786Z,101505.44
2023-11-15T11:33:17.420Z,101499.19
2023-11-15T11:35:45.554Z,101496.34
2023-11-15T11:38:39.513Z,101500.91
2023-11-15T11:41:06.729Z,101507.28
2023-11-15T11:43:34.038Z,101509.09
2023-11-15T11:46:19.774Z,101511.75
2023-11-15T11:48:48.408Z,101510.78
2023-11-15T11:51:17.308Z,101508.31
2023-11-15T11:53:46.448Z,101512.59
2023-11-15T11:56:15.548Z,101505.31
2023-11-15T11:58:44.091Z,101514.13
2023-11-15T12:01:14.446Z,101502.47
2023-11-15T12:03:47.445Z,101507.88
2023-11-15T12:06:19.758Z,101509.19
2023-11-15T12:08:52.988Z,101514.78
2023-11-15T12:11:24.884Z,101504.69
2023-11-15T12:13:53.077Z,101506.13
2023-11-15T12:16:27.588Z,101499.88
2023-11-15T12:19:11.374Z,101497.63
2023-11-15T12:21:40.393Z,101505.00
2023-11-15T12:24:08.462Z,101503.94
2023-11-15T12:26:46.827Z,101508.75
2023-11-15T12:29:24.458Z,101518.88
2023-11-15T12:31:54.087Z,101509.97
2023-11-15T12:34:21.839Z,101510.66
2023-11-15T12:36:52.598Z,101509.63
2023-11-15T12:39:23.547Z,101514.66
2023-11-15T12:41:54.251Z,101519.09
2023-11-15T12:44:21.635Z,101502.50
2023-11-15T12:46:54.336Z,101517.97
2023-11-15T12:49:27.117Z,101524.91
2023-11-15T12:51:53.977Z,101512.28
2023-11-15T12:54:22.800Z,101519.31
2023-11-15T12:57:15.244Z,101509.56
2023-11-15T12:59:43.533Z,101514.41
2023-11-15T13:02:18.742Z,101519.53
2023-11-15T13:04:51.061Z,101525.78
2023-11-15T13:07:18.825Z,101531.84
2023-11-15T13:09:46.721Z,101520.75
2023-11-15T13:12:27.864Z,101528.03
2023-11-15T13:14:56.350Z,101522.91
2023-11-15T13:17:23.314Z,101528.81
2023-11-15T13:19:50.224Z,101534.03
2023-11-15T13:22:17.072Z,101531.91
2023-11-15T13:24:50.413Z,101523.88
2023-11-15T13:27:19.119Z,101531.44
2023-11-15T13:29:46.148Z,101524.59
2023-11-15T13:32:13.816Z,101533.91
2023-11-15T13:34:41.168Z,101525.28
2023-11-15T13:37:10.534Z,101532.66
2023-11-15T13:39:39.101Z,101529.31
2023-11-15T13:42:06.784Z,101537.81
2023-11-15T13:44:35.054Z,101537.81
2023-11-15T13:47:01.603Z,101542.38
2023-11-15T13:49:28.178Z,101540.13
2023-11-15T13:51:55.901Z,101539.00
2023-11-15T13:54:24.198Z,101537.56
2023-11-15T13:56:52.676Z,101547.50
2023-11-15T13:59:20.578Z,101551.84
2023-11-15T14:01:48.512Z,101551.59
2023-11-15T14:04:15.374Z,101556.13
2023-11-15T14:06:42.790Z,101558.19
2023-11-15T14:09:14.102Z,101551.03
2023-11-15T14:11:41.431Z,101557.34
2023-11-15T14:14:08.586Z,101553.16
2023-11-15T14:16:36.412Z,101561.47
2023-11-15T14:19:03.800Z,101567.94
2023-11-15T14:21:31.663Z,101559.84
2023-11-15T14:23:58.898Z,101568.75
2023-11-15T14:26:26.939Z,101565.38
2023-11-15T14:28:53.845Z,101562.72
2023-11-15T14:31:20.780Z,101572.25
2023-11-15T14:33:47.819Z,101568.84
2023-11-15T14:36:17.811Z,101566.94
2023-11-15T14:38:47.349Z,101561.09
2023-11-15T14:41:16.849Z,101573.13
2023-11-15T14:43:46.787Z,101581.22
2023-11-15T14:46:16.814Z,101581.06
2023-11-15T14:48:46.214Z,101566.88
2023-11-15T14:51:13.570Z,101566.78
2023-11-15T14:53:54.443Z,101571.41
2023-11-15T14:56:21.716Z,101576.94
2023-11-15T14:58:53.567Z,101582.50
2023-11-15T15:01:23.108Z,101580.34
2023-11-15T15:03:53.507Z,101586.59
2023-11-15T15:06:21.280Z,101597.00
2023-11-15T15:08:48.582Z,101582.94
2023-11-15T15:11:16.485Z,101591.31
2023-11-15T15:13:44.642Z,101585.41
2023-11-15T15:16:11.900Z,101586.28
2023-11-15T15:18:39.959Z,101590.47
2023-11-15T15:21:09.202Z,101589.09
2023-11-15T15:23:37.477Z,101589.34
2023-11-15T15:26:06.550Z,101591.84
2023-11-15T15:28:34.710Z,101591.06
2023-11-15T15:31:01.780Z,101588.66
2023-11-15T15:33:29.491Z,101602.63
2023-11-15T15:35:58.245Z,101599.53
2023-11-15T15:38:26.991Z,101594.75
2023-11-15T15:40:54.163Z,101594.47
2023-11-15T15:43:20.941Z,101597.91
2023-11-15T15:45:47.562Z,101592.84
2023-11-15T15:48:14.356Z,101599.44
2023-11-15T15:50:42.760Z,101607.38
2023-11-15T15:53:10.569Z,101605.59
2023-11-15T15:55:38.451Z,101612.16
2023-11-15T15:58:06.616Z,101617.03
2023-11-15T16:00:33.881Z,101612.38
2023-11-15T16:03:02.153Z,101610.06
2023-11-15T16:05:29.956Z,101604.75
2023-11-15T16:07:58.271Z,101608.09
2023-11-15T16:10:26.325Z,101612.16
2023-11-15T16:12:52.965Z,101612.06
2023-11-15T16:15:21.318Z,101607.72
2023-11-15T16:17:50.461Z,101616.91
2023-11-15T16:20:18.772Z,101609.44
2023-11-15T16:22:45.876Z,101604.75
2023-11-15T16:25:12.813Z,101609.63
2023-11-15T16:27:39.974Z,101617.59
2023-11-15T16:30:10.810Z,101621.91
2023-11-15T16:32:38.127Z,101623.69
2023-11-15T16:35:06.645Z,101628.06
2023-11-15T16:37:36.820Z,101627.13
2023-11-15T16:40:07.094Z,101629.53
2023-11-15T16:42:34.531Z,101631.47
2023-11-15T16:45:02.671Z,101636.88
2023-11-15T16:47:30.200Z,101629.00
2023-11-15T16:49:59.077Z,101629.97
2023-11-15T16:52:26.280Z,101628.28
2023-11-15T16:54:53.412Z,101635.06
2023-11-15T16:57:20.125Z,101638.88
2023-11-15T16:59:47.335Z,101641.59
2023-11-15T17:02:14.745Z,101637.41
2023-11-15T17:04:41.833Z,101640.22
2023-11-15T17:07:08.738Z,101644.50
2023-11-15T17:09:37.264Z,101642.69
2023-11-15T17:12:06.389Z,101638.66
2023-11-15T17:14:34.381Z,101645.44
2023-11-15T17:17:01.864Z,101652.34
2023-11-15T17:19:30.670Z,101646.97
2023-11-15T17:21:59.625Z,101648.06
2023-11-15T17:24:27.205Z,101635.38
2023-11-15T17:26:55.380Z,101642.63
2023-11-15T17:29:22.245Z,101642.63
2023-11-15T17:31:49.871Z,101642.09
2023-11-15T17:34:17.223Z,101635.00
2023-11-15T17:36:45.205Z,101644.56
2023-11-15T17:39:13.947Z,101648.16
2023-11-15T17:41:42.649Z,101646.53
2023-11-15T17:44:13.010Z,101646.28
2023-11-15T17:46:43.528Z,101642.41
2023-11-15T17:49:13.984Z,101642.34
2023-11-15T17:51:44.980Z,101633.56
2023-11-15T17:54:13.890Z,101640.66
2023-11-15T17:56:40.981Z,101640.47
2023-11-15T17:59:09.105Z,101647.47
2023-11-15T18:01:37.023Z,101643.88
2023-11-15T18:04:08.970Z,101646.44
2023-11-15T18:06:37.266Z,101642.88
2023-11-15T18:09:05.113Z,101642.88
2023-11-15T18:11:32.699Z,101637.41
2023-11-15T18:14:07.128Z,101636.31
2023-11-15T18:16:34.296Z,101630.16
2023-11-15T18:19:08.823Z,101627.56
2023-11-15T18:21:35.939Z,101630.91
2023-11-15T18:24:02.864Z,101631.94
2023-11-15T18:26:32.984Z,101630.06
2023-11-15T18:29:01.664Z,101639.66
2023-11-15T18:31:30.097Z,101636.63
2023-11-15T18:33:59.147Z,101631.47
2023-11-15T18:36:29.660Z,101637.56
2023-11-15T18:38:57.421Z,101635.06
2023-11-15T18:41:24.802Z,101630.72
2023-11-15T18:43:51.472Z,101640.38
2023-11-15T18:46:21.465Z,101640.22
2023-11-15T18:48:49.129Z,101624.31
2023-11-15T18:51:29.693Z,101629.44
2023-11-15T18:54:02.749Z,101633.63
2023-11-15T18:56:32.098Z,101634.41
2023-11-15T18:59:01.471Z,101633.72
2023-11-15T19:01:30.030Z,101634.41
2023-11-15T19:03:58.500Z,101632.09
2023-11-15T19:06:27.633Z,101631.22
2023-11-15T19:08:54.950Z,101626.94
2023-11-15T19:11:22.072Z,101634.56
2023-11-15T19:13:48.857Z,101633.72
2023-11-15T19:16:19.966Z,101636.13
2023-11-15T19:18:47.657Z,101635.59
2023-11-15T19:21:16.963Z,101634.50
2023-11-15T19:23:43.973Z,101630.13
2023-11-15T19:26:12.780Z,101639.72
2023-11-15T19:28:40.910Z,101631.59
2023-11-15T19:31:08.309Z,101620.81
2023-11-15T19:33:35.813Z,101632.19
2023-11-15T19:36:04.951Z,101630.66
2023-11-15T19:38:32.293Z,101643.31
2023-11-15T19:41:02.522Z,101638.78
2023-11-15T19:43:29.336Z,101639.50
2023-11-15T19:45:57.446Z,101645.88
2023-11-15T19:48:24.934Z,101651.66
2023-11-15T19:50:52.486Z,101635.16
2023-11-15T19:53:20.228Z,101637.72
2023-11-15T19:55:50.564Z,101627.38
2023-11-15T19:58:17.259Z,101612.94
2023-11-15T20:00:44.538Z,101607.81
2023-11-15T20:03:11.868Z,101606.63
2023-11-15T20:05:42.125Z,101617.69
2023-11-15T20:08:09.152Z,101624.78
2023-11-15T20:10:36.339Z,101620.81
2023-11-15T20:13:03.342Z,101616.22
2023-11-15T20:15:30.032Z,101616.28
2023-11-15T20:17:57.840Z,101617.66
2023-11-15T20:20:26.357Z,101607.31
2023-11-15T20:22:55.771Z,101607.16
2023-11-15T20:25:23.706Z,101608.66
2023-11-15T20:27:50.906Z,101618.16
2023-11-15T20:30:22.954Z,101626.78
2023-11-15T20:32:50.792Z,101628.25
2023-11-15T20:35:18.379Z,101623.97
2023-11-15T20:37:46.002Z,101615.16
2023-11-15T20:40:16.343Z,101621.84
2023-11-15T20:42:47.635Z,101622.78
2023-11-15T20:45:16.110Z,101625.53
2023-11-15T20:47:43.685Z,101624.75
2023-11-15T20:50:10.959Z,101625.44
2023-11-15T20:52:37.804Z,101621.31
2023-11-15T20:55:08.711Z,101623.88
2023-11-15T20:57:37.508Z,101622.94
2023-11-15T21:00:12.822Z,101624.75
2023-11-15T21:02:40.649Z,101616.53
2023-11-15T21:05:12.300Z,101626.72
2023-11-15T21:07:39.880Z,101623.88
2023-11-15T21:10:09.405Z,101623.63
2023-11-15T21:12:36.661Z,101618.34
2023-11-15T21:15:07.084Z,101628.84
2023-11-15T21:17:34.266Z,101628.94
2023-11-15T21:20:01.790Z,101622.78
2023-11-15T21:22:29.025Z,101627.41
2023-11-15T21:24:56.032Z,101623.97
2023-11-15T21:27:22.962Z,101621.81
2023-11-15T21:29:50.086Z,101623.28
2023-11-15T21:32:17.284Z,101622.69
2023-11-15T21:34:46.342Z,101624.69
2023-11-15T21:37:18.309Z,101624.56
2023-11-15T21:39:45.915Z,101614.00
2023-11-15T21:42:12.706Z,101619.00
2023-11-15T21:44:39.401Z,101614.56
2023-11-15T21:47:06.539Z,101613.78
2023-11-15T21:49:33.249Z,101619.31
2023-11-15T21:52:00.210Z,101629.78
2023-11-15T21:54:27.253Z,101617.47
2023-11-15T21:56:55.667Z,101623.19
2023-11-15T21:59:23.675Z,101623.97
2023-11-15T22:01:50.767Z,101622.50
2023-11-15T22:04:18.665Z,101633.03
2023-11-15T22:06:55.667Z,101627.81
2023-11-15T22:09:27.980Z,101627.91
2023-11-15T22:11:54.957Z,101627.72
2023-11-15T22:14:22.028Z,101626.72
2023-11-15T22:16:51.358Z,101635.00
2023-11-15T22:19:19.417Z,101625.47
2023-11-15T22:21:46.980Z,101623.38
2023-11-15T22:24:17.000Z,101619.78
2023-11-15T22:26:44.069Z,101625.31
2023-11-15T22:29:10.721Z,101627.13
2023-11-15T22:31:38.144Z,101624.13
2023-11-15T22:34:05.749Z,101630.53
2023-11-15T22:36:32.889Z,101635.19
2023-11-15T22:39:01.712Z,101643.88
2023-11-15T22:41:32.647Z,101656.09
2023-11-15T22:43:59.459Z,101651.44
2023-11-15T22:46:26.717Z,101664.91
2023-11-15T22:48:55.223Z,101675.91
2023-11-15T22:51:22.555Z,101677.84
2023-11-15T22:53:49.695Z,101686.03
2023-11-15T22:56:16.903Z,101682.94
2023-11-15T22:58:43.820Z,101683.53
2023-11-15T23:01:13.312Z,101691.47
2023-11-15T23:03:41.286Z,101691.50
2023-11-15T23:06:12.935Z,101691.47
2023-11-15T23:08:40.946Z,101703.91
2023-11-15T23:11:11.472Z,101694.25
2023-11-15T23:13:38.460Z,101691.75
2023-11-15T23:16:06.101Z,101693.75
2023-11-15T23:18:33.138Z,101695.69
2023-11-15T23:21:00.525Z,101699.28
2023-11-15T23:23:27.619Z,101704.72
2023-11-15T23:25:55.746Z,101705.59
2023-11-15T23:28:23.048Z,101696.00
2023-11-15T23:30:51.372Z,101710.81
2023-11-15T23:33:20.024Z,101703.63
2023-11-15T23:35:47.145Z,101709.09
2023-11-15T23:38:13.871Z,101722.31
2023-11-15T23:40:41.131Z,101717.97
2023-11-15T23:43:09.273Z,101725.03
2023-11-15T23:45:38.070Z,101718.97
2023-11-15T23:48:08.433Z,101717.31
2023-11-15T23:50:35.451Z,101725.41
2023-11-15T23:53:02.179Z,101728.75
2023-11-15T23:55:30.447Z,101721.13
2023-11-15T23:58:04.639Z,101725.19
